createdAt,value
2023-02-09T00:01:26.115Z,102725.19
2023-02-09T00:03:53.645Z,102712.81
2023-02-09T00:06:22.142Z,102720.16
2023-02-09T00:08:49.794Z,102711.25
2023-02-09T00:11:42.938Z,102708.69
2023-02-09T00:14:11.159Z,102705.84
2023-02-09T00:16:38.179Z,102707.69
2023-02-09T00:19:05.650Z,102708.56
2023-02-09T00:21:33.271Z,102710.22
2023-02-09T00:24:00.423Z,102711.56
2023-02-09T00:26:27.565Z,102706.94
2023-02-09T00:28:54.714Z,102711.25
2023-02-09T00:31:22.089Z,102723.53
2023-02-09T00:33:49.350Z,102710.22
2023-02-09T00:36:16.841Z,102711.06
2023-02-09T00:38:44.591Z,102711.25
2023-02-09T00:41:13.227Z,102705.03
2023-02-09T00:43:40.930Z,102696.94
2023-02-09T00:46:08.720Z,102710.34
2023-02-09T00:48:36.748Z,102710.34
2023-02-09T00:51:03.915Z,102712.09
2023-02-09T00:53:30.863Z,102707.53
2023-02-09T00:56:00.175Z,102704.97
2023-02-09T00:58:27.300Z,102702.25
2023-02-09T01:00:54.243Z,102706.66
2023-02-09T01:03:21.382Z,102703.09
2023-02-09T01:05:48.336Z,102698.78
2023-02-09T01:08:15.318Z,102707.56
2023-02-09T01:10:42.350Z,102702.38
2023-02-09T01:13:09.412Z,102700.13
2023-02-09T01:15:40.064Z,102699.09
2023-02-09T01:18:07.847Z,102692.75
2023-02-09T01:20:35.433Z,102692.03
2023-02-09T01:23:02.893Z,102689.34
2023-02-09T01:25:30.723Z,102690.28
2023-02-09T01:27:58.175Z,102700.06
2023-02-09T01:30:26.890Z,102692.16
2023-02-09T01:32:55.300Z,102700.84
2023-02-09T01:35:22.176Z,102694.66
2023-02-09T01:37:49.156Z,102701.59
2023-02-09T01:40:16.159Z,102688.34
2023-02-09T01:42:43.032Z,102700.72
2023-02-09T01:45:39.066Z,102697.03
2023-02-09T01:48:08.482Z,102700.53
2023-02-09T01:50:39.745Z,102699.72
2023-02-09T01:53:08.322Z,102699.66
2023-02-09T01:58:27.184Z,102708.00
2023-02-09T02:00:54.764Z,102702.69
2023-02-09T02:03:26.160Z,102706.94
2023-02-09T02:05:59.124Z,102701.50
2023-02-09T02:08:53.081Z,102697.91
2023-02-09T02:11:21.774Z,102695.22
2023-02-09T02:13:48.862Z,102690.69
2023-02-09T02:16:15.822Z,102689.91
2023-02-09T02:18:58.706Z,102689.97
2023-02-09T02:21:46.530Z,102688.16
2023-02-09T02:24:13.366Z,102685.59
2023-02-09T02:26:49.512Z,102684.50
2023-02-09T02:29:37.861Z,102680.19
2023-02-09T02:32:14.702Z,102674.88
2023-02-09T02:34:52.734Z,102683.56
2023-02-09T02:37:56.466Z,102680.78
2023-02-09T02:40:59.170Z,102675.56
2023-02-09T02:43:34.893Z,102680.97
2023-02-09T02:46:27.157Z,102681.84
2023-02-09T02:48:59.825Z,102691.63
2023-02-09T02:51:43.273Z,102679.25
2023-02-09T02:54:16.482Z,102669.50
2023-02-09T02:56:47.574Z,102673.72
2023-02-09T02:59:19.827Z,102679.91
2023-02-09T03:01:57.577Z,102688.69
2023-02-09T03:04:28.517Z,102681.53
2023-02-09T03:06:55.496Z,102675.38
2023-02-09T03:09:22.624Z,102687.00
2023-02-09T03:11:53.733Z,102672.72
2023-02-09T03:14:43.142Z,102682.53
2023-02-09T03:17:13.183Z,102680.91
2023-02-09T03:19:52.919Z,102682.16
2023-02-09T03:22:40.249Z,102675.31
2023-02-09T03:25:18.466Z,102688.56
2023-02-09T03:27:54.358Z,102690.41
2023-02-09T03:30:23.496Z,102702.94
2023-02-09T03:32:56.282Z,102696.94
2023-02-09T03:35:27.545Z,102706.84
2023-02-09T03:37:54.537Z,102711.16
2023-02-09T03:40:21.513Z,102705.78
2023-02-09T03:42:49.852Z,102700.56
2023-02-09T03:45:16.955Z,102700.78
2023-02-09T03:47:43.913Z,102704.31
2023-02-09T03:50:10.912Z,102706.97
2023-02-09T03:52:37.955Z,102704.34
2023-02-09T03:55:05.427Z,102699.97
2023-02-09T03:57:32.409Z,102698.19
2023-02-09T04:00:01.929Z,102703.66
2023-02-09T04:02:39.122Z,102687.00
2023-02-09T04:05:06.729Z,102683.56
2023-02-09T04:07:34.088Z,102690.66
2023-02-09T04:10:01.017Z,102690.66
2023-02-09T04:12:27.927Z,102695.25
2023-02-09T04:14:54.816Z,102690.69
2023-02-09T04:17:21.749Z,102689.19
2023-02-09T04:19:48.717Z,102685.69
2023-02-09T04:22:15.646Z,102686.66
2023-02-09T04:24:44.328Z,102686.66
2023-02-09T04:27:11.190Z,102685.78
2023-02-09T04:29:38.229Z,102689.28
2023-02-09T04:32:05.910Z,102683.03
2023-02-09T04:34:32.959Z,102674.41
2023-02-09T04:36:59.912Z,102676.22
2023-02-09T04:39:26.982Z,102678.88
2023-02-09T04:41:53.879Z,102677.19
2023-02-09T04:44:20.842Z,102688.09
2023-02-09T04:46:47.877Z,102688.25
2023-02-09T04:49:14.874Z,102691.06
2023-02-09T04:51:41.894Z,102687.44
2023-02-09T04:54:08.888Z,102690.19
2023-02-09T04:56:37.242Z,102699.78
2023-02-09T04:59:23.110Z,102694.53
2023-02-09T05:01:50.102Z,102701.59
2023-02-09T05:04:16.978Z,102694.53
2023-02-09T05:06:44.006Z,102698.88
2023-02-09T05:09:11.001Z,102695.38
2023-02-09T05:11:37.856Z,102698.03
2023-02-09T05:14:04.835Z,102709.63
2023-02-09T05:16:31.907Z,102699.84
2023-02-09T05:18:59.024Z,102703.38
2023-02-09T05:21:26.014Z,102705.09
2023-02-09T05:23:52.886Z,102712.03
2023-02-09T05:26:19.928Z,102718.19
2023-02-09T05:28:46.800Z,102722.50
2023-02-09T05:31:13.845Z,102724.22
2023-02-09T05:33:41.069Z,102731.25
2023-02-09T05:36:09.856Z,102736.50
2023-02-09T05:38:37.113Z,102733.75
2023-02-09T05:41:32.367Z,102734.59
2023-02-09T05:43:59.287Z,102741.56
2023-02-09T05:46:26.307Z,102737.94
2023-02-09T05:48:53.684Z,102741.44
2023-02-09T05:51:20.619Z,102748.47
2023-02-09T05:53:47.520Z,102755.56
2023-02-09T05:56:14.395Z,102752.66
2023-02-09T05:58:41.454Z,102762.34
2023-02-09T06:01:08.416Z,102758.75
2023-02-09T06:03:35.455Z,102748.03
2023-02-09T06:06:02.389Z,102745.38
2023-02-09T06:08:29.362Z,102744.66
2023-02-09T06:10:56.372Z,102742.19
2023-02-09T06:13:23.320Z,102743.00
2023-02-09T06:15:50.376Z,102749.06
2023-02-09T06:18:17.347Z,102751.72
2023-02-09T06:20:44.559Z,102762.34
2023-02-09T06:23:11.664Z,102762.22
2023-02-09T06:25:40.400Z,102766.56
2023-02-09T06:28:07.586Z,102763.88
2023-02-09T06:30:35.371Z,102765.63
2023-02-09T06:33:02.398Z,102764.84
2023-02-09T06:35:29.655Z,102773.66
2023-02-09T06:37:59.084Z,102771.00
2023-02-09T06:40:26.046Z,102779.09
2023-02-09T06:42:53.001Z,102782.63
2023-02-09T06:45:19.959Z,102785.25
2023-02-09T06:47:47.395Z,102772.88
2023-02-09T06:50:16.107Z,102778.28
2023-02-09T06:52:43.402Z,102785.41
2023-02-09T06:55:11.268Z,102781.91
2023-02-09T06:57:38.628Z,102779.19
2023-02-09T07:00:08.330Z,102781.00
2023-02-09T07:02:35.737Z,102786.16
2023-02-09T07:05:02.726Z,102799.34
2023-02-09T07:07:29.706Z,102810.63
2023-02-09T07:09:56.597Z,102811.34
2023-02-09T07:12:23.799Z,102818.25
2023-02-09T07:14:50.691Z,102827.94
2023-02-09T07:17:17.601Z,102829.69
2023-02-09T07:19:44.530Z,102832.22
2023-02-09T07:22:11.591Z,102842.47
2023-02-09T07:24:38.544Z,102842.84
2023-02-09T07:27:06.269Z,102843.16
2023-02-09T07:29:33.995Z,102852.41
2023-02-09T07:32:00.943Z,102859.66
2023-02-09T07:34:27.948Z,102859.69
2023-02-09T07:36:55.510Z,102856.00
2023-02-09T07:39:22.500Z,102867.16
2023-02-09T07:41:49.841Z,102870.81
2023-02-09T07:44:16.909Z,102875.88
2023-02-09T07:46:43.974Z,102873.56
2023-02-09T07:49:11.771Z,102869.72
2023-02-09T07:51:39.202Z,102870.59
2023-02-09T07:54:08.618Z,102869.44
2023-02-09T07:56:37.550Z,102880.06
2023-02-09T07:59:04.524Z,102892.16
2023-02-09T08:01:31.481Z,102891.81
2023-02-09T08:03:58.705Z,102890.06
2023-02-09T08:06:42.779Z,102880.16
2023-02-09T08:09:11.937Z,102880.78
2023-02-09T08:11:48.877Z,102886.91
2023-02-09T08:14:43.083Z,102890.69
2023-02-09T08:17:28.163Z,102894.91
2023-02-09T08:20:19.459Z,102896.69
2023-02-09T08:22:50.775Z,102895.84
2023-02-09T08:25:21.058Z,102908.13
2023-02-09T08:27:48.368Z,102909.91
2023-02-09T08:30:17.269Z,102904.06
2023-02-09T08:32:44.552Z,102920.31
2023-02-09T08:35:11.565Z,102914.19
2023-02-09T08:37:38.988Z,102919.72
2023-02-09T08:40:06.152Z,102919.59
2023-02-09T08:42:33.092Z,102922.31
2023-02-09T08:45:00.003Z,102923.50
2023-02-09T08:47:27.086Z,102922.06
2023-02-09T08:49:53.928Z,102929.44
2023-02-09T08:52:20.863Z,102925.81
2023-02-09T08:54:47.894Z,102926.81
2023-02-09T08:57:14.835Z,102932.38
2023-02-09T08:59:41.866Z,102936.88
2023-02-09T09:02:08.896Z,102933.16
2023-02-09T09:04:35.850Z,102932.97
2023-02-09T09:07:02.993Z,102947.00
2023-02-09T09:09:29.933Z,102939.28
2023-02-09T09:11:57.018Z,102939.69
2023-02-09T09:14:24.040Z,102940.78
2023-02-09T09:16:51.040Z,102940.38
2023-02-09T09:19:18.007Z,102944.47
2023-02-09T09:21:45.075Z,102946.50
2023-02-09T09:24:12.058Z,102951.09
2023-02-09T09:26:38.937Z,102955.28
2023-02-09T09:29:05.844Z,102942.72
2023-02-09T09:31:33.688Z,102955.84
2023-02-09T09:34:00.753Z,102964.53
2023-02-09T09:36:27.765Z,102974.72
2023-02-09T09:38:56.486Z,102976.28
2023-02-09T09:41:33.909Z,102976.41
2023-02-09T09:44:02.615Z,102990.38
2023-02-09T09:46:37.790Z,102990.09
2023-02-09T09:49:05.205Z,102989.66
2023-02-09T09:51:45.807Z,102991.06
2023-02-09T09:54:29.137Z,102987.75
2023-02-09T09:56:56.754Z,102999.22
2023-02-09T09:59:28.568Z,103001.44
2023-02-09T10:01:57.559Z,102995.63
2023-02-09T10:04:24.708Z,102997.28
2023-02-09T10:07:10.618Z,103008.91
2023-02-09T10:10:03.162Z,103007.44
2023-02-09T10:12:39.480Z,103007.53
2023-02-09T10:15:29.163Z,103003.53
2023-02-09T10:17:57.429Z,103017.44
2023-02-09T10:20:49.940Z,103013.06
2023-02-09T10:23:36.488Z,103016.56
2023-02-09T10:26:05.027Z,103018.72
2023-02-09T10:28:34.913Z,103020.66
2023-02-09T10:31:10.038Z,103007.44
2023-02-09T10:33:45.484Z,103037.47
2023-02-09T10:36:37.655Z,103034.72
2023-02-09T10:39:33.034Z,103020.50
2023-02-09T10:42:24.985Z,103019.16
2023-02-09T10:44:55.306Z,103040.44
2023-02-09T10:47:25.248Z,103007.03
2023-02-09T10:49:56.825Z,103018.63
2023-02-09T10:52:26.470Z,103013.75
2023-02-09T10:55:00.174Z,103020.91
2023-02-09T10:57:29.071Z,103015.06
2023-02-09T11:00:01.888Z,103018.66
2023-02-09T11:02:38.840Z,103006.56
2023-02-09T11:05:27.455Z,103007.91
2023-02-09T11:08:22.576Z,103009.13
2023-02-09T11:11:08.549Z,103001.81
2023-02-09T11:13:36.745Z,103008.78
2023-02-09T11:16:15.516Z,103002.84
2023-02-09T11:18:49.418Z,103014.34
2023-02-09T11:21:47.851Z,103024.31
2023-02-09T11:24:37.336Z,103022.63
2023-02-09T11:27:17.155Z,103015.44
2023-02-09T11:29:54.172Z,103028.25
2023-02-09T11:32:48.569Z,103013.38
2023-02-09T11:35:22.329Z,102998.50
2023-02-09T11:38:39.442Z,103000.13
2023-02-09T11:41:31.898Z,103002.41
2023-02-09T11:44:02.019Z,103010.47
2023-02-09T11:46:33.933Z,103007.66
2023-02-09T11:49:07.395Z,103001.28
2023-02-09T11:51:39.710Z,102994.13
2023-02-09T11:54:09.297Z,102988.13
2023-02-09T11:56:41.909Z,102987.31
2023-02-09T11:59:23.074Z,102986.47
2023-02-09T12:02:23.610Z,103000.09
2023-02-09T12:04:58.627Z,102980.16
2023-02-09T12:07:25.475Z,102992.16
2023-02-09T12:10:15.994Z,102989.13
2023-02-09T12:13:14.065Z,102983.97
2023-02-09T12:15:46.743Z,102974.47
2023-02-09T12:18:21.283Z,102982.84
2023-02-09T12:20:56.324Z,102977.97
2023-02-09T12:23:42.833Z,102984.81
2023-02-09T12:26:15.524Z,102973.25
2023-02-09T12:28:54.299Z,102981.31
2023-02-09T12:31:26.911Z,102959.78
2023-02-09T12:33:59.938Z,102951.56
2023-02-09T12:36:36.158Z,102951.31
2023-02-09T12:39:24.404Z,102946.22
2023-02-09T12:41:51.583Z,102952.44
2023-02-09T12:44:21.389Z,102964.41
2023-02-09T12:46:55.706Z,102945.56
2023-02-09T12:49:28.926Z,102963.81
2023-02-09T12:52:02.216Z,102942.94
2023-02-09T12:54:52.344Z,102937.06
2023-02-09T12:57:39.189Z,102960.22
2023-02-09T13:00:06.033Z,102942.31
2023-02-09T13:02:48.585Z,102948.56
2023-02-09T13:05:17.898Z,102938.25
2023-02-09T13:08:19.028Z,102937.97
2023-02-09T13:11:06.687Z,102934.81
2023-02-09T13:13:57.989Z,102931.22
2023-02-09T13:16:24.952Z,102944.88
2023-02-09T13:19:13.905Z,102920.69
2023-02-09T13:22:17.156Z,102925.66
2023-02-09T13:25:01.008Z,102935.72
2023-02-09T13:27:29.296Z,102924.19
2023-02-09T13:29:58.837Z,102935.72
2023-02-09T13:33:04.033Z,102941.28
2023-02-09T13:35:47.222Z,102945.75
2023-02-09T13:38:17.888Z,102959.78
2023-02-09T13:40:48.297Z,102942.34
2023-02-09T13:43:20.152Z,102916.13
2023-02-09T13:45:52.774Z,102914.81
2023-02-09T13:48:22.988Z,102912.72
2023-02-09T13:50:51.696Z,102920.56
2023-02-09T13:53:22.824Z,102934.81
2023-02-09T13:55:53.342Z,102932.88
2023-02-09T13:58:30.300Z,102926.16
2023-02-09T14:01:02.658Z,102933.19
2023-02-09T14:03:46.977Z,102926.69
2023-02-09T14:06:49.988Z,102920.31
2023-02-09T14:09:27.673Z,102917.41
2023-02-09T14:12:01.757Z,102930.38
2023-02-09T14:14:54.547Z,102931.88
2023-02-09T14:17:27.110Z,102932.91
2023-02-09T14:19:56.154Z,102937.47
2023-02-09T14:22:39.291Z,102937.16
2023-02-09T14:25:30.077Z,102949.75
2023-02-09T14:27:57.988Z,102944.09
2023-02-09T14:30:31.662Z,102946.59
2023-02-09T14:33:04.102Z,102953.31
2023-02-09T14:35:40.722Z,102955.53
2023-02-09T14:38:42.881Z,102956.66
2023-02-09T14:41:30.131Z,102953.66
2023-02-09T14:44:21.976Z,102954.44
2023-02-09T14:46:54.878Z,102975.56
2023-02-09T14:49:23.308Z,102966.72
2023-02-09T14:51:57.426Z,102970.22
2023-02-09T14:54:27.728Z,102970.44
2023-02-09T14:56:57.980Z,102973.09
2023-02-09T14:59:25.663Z,102973.06
2023-02-09T15:01:54.425Z,102975.69
2023-02-09T15:04:21.379Z,102976.84
2023-02-09T15:06:56.772Z,102979.16
2023-02-09T15:09:33.728Z,102970.22
2023-02-09T15:12:07.302Z,102972.72
2023-02-09T15:14:44.109Z,102981.97
2023-02-09T15:17:18.076Z,102978.94
2023-02-09T15:19:45.961Z,102978.72
2023-02-09T15:22:16.302Z,102985.78
2023-02-09T15:24:48.640Z,102987.72
2023-02-09T15:27:32.588Z,102994.38
2023-02-09T15:30:02.359Z,102999.34
2023-02-09T15:32:30.786Z,102998.81
2023-02-09T15:34:57.706Z,102999.56
2023-02-09T15:37:33.692Z,102998.06
2023-02-09T15:40:12.722Z,103003.69
2023-02-09T15:42:59.078Z,103003.06
2023-02-09T15:45:47.564Z,102995.41
2023-02-09T15:48:15.447Z,103000.63
2023-02-09T15:50:45.990Z,103001.31
2023-02-09T15:53:18.937Z,102998.41
2023-02-09T15:55:46.947Z,103014.16
2023-02-09T15:58:19.905Z,103004.97
2023-02-09T16:00:47.179Z,103005.13
2023-02-09T16:03:20.388Z,103002.53
2023-02-09T16:05:55.351Z,103005.91
2023-02-09T16:08:27.708Z,103010.56
2023-02-09T16:10:54.675Z,103011.50
2023-02-09T16:13:21.564Z,103010.88
2023-02-09T16:15:48.765Z,103002.25
2023-02-09T16:18:15.727Z,103005.13
2023-02-09T16:20:47.244Z,103010.34
2023-02-09T16:23:21.036Z,103016.75
2023-02-09T16:25:51.285Z,103016.72
2023-02-09T16:28:19.939Z,103024.03
2023-02-09T16:30:55.639Z,103019.78
2023-02-09T16:33:24.336Z,103022.16
2023-02-09T16:35:56.893Z,103026.53
2023-02-09T16:38:25.769Z,103018.53
2023-02-09T16:40:54.597Z,103032.44
2023-02-09T16:43:22.676Z,103039.94
2023-02-09T16:46:02.943Z,103043.25
2023-02-09T16:48:32.802Z,103040.84
2023-02-09T16:50:59.787Z,103035.25
2023-02-09T16:53:29.937Z,103041.97
2023-02-09T16:55:56.881Z,103041.03
2023-02-09T16:58:24.169Z,103036.75
2023-02-09T17:00:51.251Z,103042.22
2023-02-09T17:03:33.669Z,103038.00
2023-02-09T17:06:02.420Z,103051.47
2023-02-09T17:08:38.274Z,103048.47
2023-02-09T17:11:05.517Z,103055.53
2023-02-09T17:13:32.557Z,103055.53
2023-02-09T17:16:04.701Z,103052.84
2023-02-09T17:18:42.365Z,103056.31
2023-02-09T17:21:27.279Z,103068.72
2023-02-09T17:23:57.513Z,103073.72
2023-02-09T17:26:24.775Z,103071.63
2023-02-09T17:28:51.820Z,103084.13
2023-02-09T17:31:25.328Z,103089.78
2023-02-09T17:33:57.363Z,103086.25
2023-02-09T17:36:27.903Z,103092.41
2023-02-09T17:38:57.516Z,103086.38
2023-02-09T17:41:33.608Z,103089.59
2023-02-09T17:44:44.628Z,103098.50
2023-02-09T17:47:17.740Z,103096.88
2023-02-09T17:49:44.750Z,103102.44
2023-02-09T17:52:17.173Z,103109.41
2023-02-09T17:54:44.373Z,103104.66
2023-02-09T17:57:16.480Z,103113.53
2023-02-09T17:59:44.139Z,103109.69
2023-02-09T18:02:17.731Z,103105.03
2023-02-09T18:04:44.747Z,103106.59
2023-02-09T18:07:14.023Z,103113.75
2023-02-09T18:09:40.908Z,103112.97
2023-02-09T18:12:19.384Z,103122.88
2023-02-09T18:14:46.509Z,103125.44
2023-02-09T18:17:13.348Z,103128.97
2023-02-09T18:19:40.363Z,103129.09
2023-02-09T18:22:07.374Z,103131.91
2023-02-09T18:24:35.660Z,103138.13
2023-02-09T18:27:03.382Z,103148.94
2023-02-09T18:29:30.604Z,103154.13
2023-02-09T18:31:58.820Z,103160.25
2023-02-09T18:34:26.595Z,103159.44
2023-02-09T18:36:53.651Z,103156.75
2023-02-09T18:39:20.680Z,103158.56
2023-02-09T18:41:54.488Z,103163.16
2023-02-09T18:44:29.479Z,103171.88
2023-02-09T18:46:57.854Z,103173.09
2023-02-09T18:49:24.761Z,103172.88
2023-02-09T18:51:52.363Z,103177.03
2023-02-09T18:54:19.597Z,103181.38
2023-02-09T18:56:46.520Z,103177.69
2023-02-09T18:59:13.519Z,103189.09
2023-02-09T19:01:41.118Z,103196.47
2023-02-09T19:04:08.066Z,103196.56
2023-02-09T19:06:35.637Z,103197.66
2023-02-09T19:09:02.638Z,103197.47
2023-02-09T19:11:29.563Z,103200.22
2023-02-09T19:14:14.943Z,103209.69
2023-02-09T19:16:41.944Z,103213.34
2023-02-09T19:19:13.468Z,103211.88
2023-02-09T19:21:40.393Z,103213.53
2023-02-09T19:24:07.337Z,103211.59
2023-02-09T19:26:34.366Z,103205.16
2023-02-09T19:29:01.552Z,103202.34
2023-02-09T19:31:28.957Z,103210.47
2023-02-09T19:33:57.502Z,103212.56
2023-02-09T19:36:28.097Z,103216.88
2023-02-09T19:38:56.474Z,103210.34
2023-02-09T19:41:25.601Z,103220.91
2023-02-09T19:43:59.863Z,103221.63
2023-02-09T19:46:26.943Z,103224.25
2023-02-09T19:48:53.992Z,103228.72
2023-02-09T19:51:21.259Z,103219.81
2023-02-09T19:53:48.973Z,103226.84
2023-02-09T19:56:17.632Z,103235.09
2023-02-09T19:58:45.318Z,103226.84
2023-02-09T20:01:13.318Z,103233.88
2023-02-09T20:03:40.495Z,103243.56
2023-02-09T20:06:13.904Z,103238.19
2023-02-09T20:08:41.136Z,103237.34
2023-02-09T20:11:11.004Z,103233.66
2023-02-09T20:13:38.214Z,103244.31
2023-02-09T20:16:10.265Z,103251.50
2023-02-09T20:18:38.032Z,103249.94
2023-02-09T20:21:09.389Z,103244.63
2023-02-09T20:23:37.575Z,103256.09
2023-02-09T20:26:24.624Z,103256.84
2023-02-09T20:28:51.566Z,103258.66
2023-02-09T20:31:24.393Z,103266.03
2023-02-09T20:33:51.508Z,103269.50
2023-02-09T20:36:18.754Z,103274.66
2023-02-09T20:38:45.765Z,103272.81
2023-02-09T20:41:16.511Z,103274.47
2023-02-09T20:44:02.726Z,103272.72
2023-02-09T20:46:43.878Z,103282.28
2023-02-09T20:49:14.531Z,103286.59
2023-02-09T20:51:46.457Z,103285.69
2023-02-09T20:54:14.573Z,103277.59
2023-02-09T20:56:42.046Z,103276.81
2023-02-09T20:59:13.187Z,103283.03
2023-02-09T21:01:40.672Z,103278.66
2023-02-09T21:04:08.726Z,103283.63
2023-02-09T21:06:37.349Z,103286.22
2023-02-09T21:09:08.581Z,103288.03
2023-02-09T21:11:35.605Z,103286.97
2023-02-09T21:14:02.885Z,103286.91
2023-02-09T21:16:31.898Z,103280.63
2023-02-09T21:18:59.661Z,103289.50
2023-02-09T21:21:27.490Z,103287.66
2023-02-09T21:23:54.703Z,103286.97
2023-02-09T21:26:24.939Z,103295.81
2023-02-09T21:28:56.862Z,103291.38
2023-02-09T21:31:26.955Z,103290.47
2023-02-09T21:33:54.169Z,103299.56
2023-02-09T21:36:21.281Z,103297.84
2023-02-09T21:38:48.933Z,103297.84
2023-02-09T21:41:41.945Z,103296.16
2023-02-09T21:44:15.940Z,103296.25
2023-02-09T21:46:47.830Z,103291.91
2023-02-09T21:49:15.021Z,103296.34
2023-02-09T21:51:42.543Z,103291.09
2023-02-09T21:54:19.157Z,103287.63
2023-02-09T21:56:46.766Z,103280.66
2023-02-09T21:59:13.716Z,103294.94
2023-02-09T22:01:42.628Z,103285.28
2023-02-09T22:04:10.183Z,103290.63
2023-02-09T22:06:37.169Z,103290.72
2023-02-09T22:09:06.466Z,103298.78
2023-02-09T22:11:33.661Z,103295.31
2023-02-09T22:14:00.689Z,103295.41
2023-02-09T22:16:27.844Z,103296.34
2023-02-09T22:18:55.147Z,103287.63
2023-02-09T22:21:22.479Z,103286.81
2023-02-09T22:23:49.416Z,103292.22
2023-02-09T22:26:16.645Z,103290.56
2023-02-09T22:28:43.625Z,103292.59
2023-02-09T22:31:14.328Z,103293.50
2023-02-09T22:33:42.191Z,103298.00
2023-02-09T22:36:13.343Z,103291.00
2023-02-09T22:38:41.064Z,103296.41
2023-02-09T22:41:22.965Z,103304.53
2023-02-09T22:44:02.931Z,103300.16
2023-02-09T22:46:38.678Z,103299.34
2023-02-09T22:49:18.113Z,103302.09
2023-02-09T22:51:46.837Z,103307.56
2023-02-09T22:54:16.340Z,103297.06
2023-02-09T22:56:43.730Z,103303.25
2023-02-09T22:59:15.611Z,103307.78
2023-02-09T23:01:44.262Z,103305.16
2023-02-09T23:04:11.686Z,103307.91
2023-02-09T23:06:39.327Z,103306.19
2023-02-09T23:09:08.040Z,103314.16
2023-02-09T23:11:36.381Z,103307.13
2023-02-09T23:14:12.180Z,103303.56
2023-02-09T23:16:43.297Z,103303.66
2023-02-09T23:19:16.079Z,103311.75
2023-02-09T23:21:45.607Z,103312.69
2023-02-09T23:24:15.176Z,103318.91
2023-02-09T23:26:45.720Z,103317.25
2023-02-09T23:29:15.536Z,103312.03
2023-02-09T23:31:45.948Z,103319.94
2023-02-09T23:34:22.061Z,103326.22
2023-02-09T23:36:52.429Z,103328.88
2023-02-09T23:39:29.196Z,103331.63
2023-02-09T23:41:56.173Z,103337.88
2023-02-09T23:44:23.080Z,103331.69
2023-02-09T23:47:00.324Z,103332.53
2023-02-09T23:49:27.528Z,103333.53
2023-02-09T23:51:54.534Z,103329.91
2023-02-09T23:54:21.518Z,103322.78
2023-02-09T23:56:53.796Z,103322.78
2023-02-09T23:59:20.821Z,103331.69
